Time;durP1;ratioP1;P1;durP2;ratioP2;P2;SDS_P1;SDS_P2;PMS_P1;PMS_P2;Temp;Humidity;BMP_temperature;BMP_pressure;BME280_temperature;BME280_humidity;BME280_pressure;Samples;Min_cycle;Max_cycle;Signal;HPM_P1;HPM_P2
2022/05/24 00:00:17;;;;;;;13.77;8.97;;;16.40;99.90;;;;;;5057148;28;20499;-70
2022/05/24 00:02:45;;;;;;;12.57;8.47;;;16.60;99.90;;;;;;5064507;28;20454;-70
2022/05/24 00:05:13;;;;;;;10.57;8.37;;;16.70;99.90;;;;;;5060919;28;20476;-70
2022/05/24 00:07:40;;;;;;;10.90;7.47;;;16.60;99.90;;;;;;5060895;28;20509;-71
2022/05/24 00:10:10;;;;;;;8.83;6.90;;;16.60;99.90;;;;;;5063777;28;20462;-70
2022/05/24 00:12:38;;;;;;;9.77;6.73;;;16.40;99.90;;;;;;5062178;28;20523;-70
2022/05/24 00:17:54;;;;;;;10.53;5.97;;;16.20;99.90;;;;;;5061676;28;20544;-70
2022/05/24 00:20:22;;;;;;;12.63;6.30;;;16.10;99.90;;;;;;5061374;28;20463;-71
2022/05/24 00:22:49;;;;;;;9.83;7.13;;;16.10;99.90;;;;;;5062954;28;20485;-71
2022/05/24 00:25:15;;;;;;;10.03;5.37;;;16.30;99.90;;;;;;5062026;28;20462;-71
2022/05/24 00:27:42;;;;;;;10.10;7.60;;;16.40;99.90;;;;;;5061640;28;20481;-71
2022/05/24 00:30:10;;;;;;;12.37;7.43;;;16.30;99.90;;;;;;5054332;28;20547;-71
2022/05/24 00:32:37;;;;;;;13.77;7.67;;;16.20;99.90;;;;;;5059252;28;20470;-70
2022/05/24 00:35:06;;;;;;;14.57;7.93;;;16.20;99.90;;;;;;5056874;28;20497;-70
2022/05/24 00:37:35;;;;;;;12.10;9.17;;;16.10;99.90;;;;;;5062174;28;20463;-70
2022/05/24 00:40:01;;;;;;;20.60;8.17;;;16.10;99.90;;;;;;5057472;28;20483;-70
2022/05/24 00:42:31;;;;;;;17.83;7.97;;;16.10;99.90;;;;;;5063586;28;20473;-70
2022/05/24 00:45:02;;;;;;;15.70;8.87;;;16.10;99.90;;;;;;5063529;28;20458;-71
2022/05/24 00:47:34;;;;;;;11.73;8.47;;;16.10;99.90;;;;;;5061761;28;20914;-70
2022/05/24 00:50:06;;;;;;;12.70;7.07;;;16.10;99.90;;;;;;5065734;28;21142;-70
2022/05/24 00:52:42;;;;;;;12.27;8.93;;;16.10;99.90;;;;;;5063969;28;20589;-70
2022/05/24 00:55:12;;;;;;;11.57;8.23;;;16.10;99.90;;;;;;5065605;28;20501;-71
2022/05/24 00:57:45;;;;;;;12.30;7.73;;;16.20;99.90;;;;;;5063258;28;20456;-71
2022/05/24 01:00:15;;;;;;;19.20;10.37;;;16.30;99.90;;;;;;5062294;28;20875;-71
2022/05/24 01:02:43;;;;;;;11.23;7.10;;;16.20;99.90;;;;;;5064018;28;20837;-70
2022/05/24 01:05:14;;;;;;;16.43;9.43;;;16.20;99.90;;;;;;5066920;28;20463;-71
2022/05/24 01:07:41;;;;;;;13.03;8.70;;;16.30;99.90;;;;;;5066796;28;20585;-70
2022/05/24 01:10:12;;;;;;;12.53;8.67;;;16.40;99.90;;;;;;5061363;28;20466;-71
2022/05/24 01:12:43;;;;;;;13.63;8.23;;;16.50;99.90;;;;;;5065463;28;20457;-71
2022/05/24 01:15:11;;;;;;;16.47;10.90;;;16.40;99.90;;;;;;5066229;28;20473;-71
2022/05/24 01:17:39;;;;;;;13.43;10.50;;;16.20;99.90;;;;;;5063944;28;20484;-71
2022/05/24 01:20:07;;;;;;;14.20;9.60;;;16.30;99.90;;;;;;5063623;28;20471;-71
2022/05/24 01:22:53;;;;;;;15.40;9.03;;;16.30;99.90;;;;;;5064596;28;21065;-71
2022/05/24 01:25:26;;;;;;;16.70;9.23;;;16.30;99.90;;;;;;5063574;28;20510;-71
2022/05/24 01:27:54;;;;;;;12.43;9.17;;;16.20;99.90;;;;;;5063947;28;20456;-71
2022/05/24 01:30:21;;;;;;;14.23;9.10;;;16.20;99.90;;;;;;5058681;28;20488;-70
2022/05/24 01:38:21;;;;;;;18.23;8.27;;;16.10;99.90;;;;;;5063517;28;20779;-70
2022/05/24 01:40:49;;;;;;;8.60;6.20;;;16.10;99.90;;;;;;5061399;28;20542;-71
2022/05/24 01:43:18;;;;;;;17.23;9.33;;;16.10;99.90;;;;;;5063670;28;20886;-70
2022/05/24 01:45:50;;;;;;;16.07;10.70;;;15.90;99.90;;;;;;5064094;28;20461;-71
2022/05/24 01:48:21;;;;;;;13.63;9.07;;;16.00;99.90;;;;;;5065126;28;20560;-71
2022/05/24 01:50:49;;;;;;;21.50;8.77;;;16.00;99.90;;;;;;5061213;28;21187;-71
2022/05/24 01:53:19;;;;;;;12.10;7.10;;;15.90;99.90;;;;;;5064581;28;20528;-71
2022/05/24 01:55:50;;;;;;;11.07;7.07;;;15.90;99.90;;;;;;5064293;28;20510;-71
2022/05/24 01:58:21;;;;;;;12.43;8.43;;;16.00;99.90;;;;;;5064060;28;20453;-70
2022/05/24 02:00:53;;;;;;;14.20;9.10;;;16.10;99.90;;;;;;5064103;28;20876;-71
2022/05/24 02:03:20;;;;;;;17.97;10.73;;;16.00;99.90;;;;;;5063297;28;20436;-71
2022/05/24 02:05:47;;;;;;;13.20;7.60;;;16.00;99.90;;;;;;5062893;28;20802;-71
2022/05/24 02:08:14;;;;;;;7.90;5.57;;;16.00;99.90;;;;;;5063317;28;20535;-70
2022/05/24 02:10:46;;;;;;;8.60;5.63;;;16.00;99.90;;;;;;5061767;28;20506;-71
2022/05/24 02:13:23;;;;;;;11.27;7.40;;;15.90;99.90;;;;;;5064638;28;20485;-70
2022/05/24 02:15:55;;;;;;;9.47;7.00;;;15.90;99.90;;;;;;5062445;28;21025;-71
2022/05/24 02:18:23;;;;;;;9.50;6.77;;;15.90;99.90;;;;;;5062462;28;20458;-70
2022/05/24 02:20:50;;;;;;;10.07;7.73;;;15.90;99.90;;;;;;5061214;28;20486;-70
2022/05/24 02:23:18;;;;;;;12.90;7.03;;;16.00;99.90;;;;;;5064508;28;20469;-70
2022/05/24 02:25:48;;;;;;;14.30;7.87;;;16.00;99.90;;;;;;5062841;28;20852;-70
2022/05/24 02:28:15;;;;;;;10.83;8.00;;;15.90;99.90;;;;;;5066204;28;20642;-70
2022/05/24 02:30:45;;;;;;;14.00;7.00;;;16.00;99.90;;;;;;5059136;28;20557;-71
2022/05/24 02:33:13;;;;;;;9.73;7.63;;;16.10;99.90;;;;;;5059460;28;20870;-70
2022/05/24 02:35:39;;;;;;;16.50;7.77;;;16.10;99.90;;;;;;5064899;28;20527;-70
2022/05/24 02:38:07;;;;;;;14.83;8.40;;;16.10;99.90;;;;;;5057958;28;20501;-70
2022/05/24 02:43:18;;;;;;;11.70;7.80;;;16.10;99.90;;;;;;5060851;28;20946;-70
2022/05/24 02:45:45;;;;;;;11.30;7.10;;;16.10;99.90;;;;;;5065667;28;21147;-70
2022/05/24 02:48:13;;;;;;;10.50;8.00;;;16.00;99.90;;;;;;5061416;28;21006;-70
2022/05/24 02:50:40;;;;;;;15.10;8.17;;;16.00;99.90;;;;;;5059260;28;20493;-70
2022/05/24 02:53:07;;;;;;;12.33;7.43;;;16.00;99.90;;;;;;5060914;28;20469;-70
2022/05/24 02:55:33;;;;;;;8.73;5.67;;;15.90;99.90;;;;;;5061524;28;20941;-70
2022/05/24 02:58:00;;;;;;;12.20;7.90;;;16.00;99.90;;;;;;5061471;28;20437;-70
2022/05/24 03:00:27;;;;;;;13.23;7.43;;;15.90;99.90;;;;;;5061258;28;20494;-71
2022/05/24 03:02:54;;;;;;;15.87;7.93;;;15.70;99.90;;;;;;5062623;28;20452;-70
2022/05/24 03:05:23;;;;;;;12.70;9.30;;;15.90;99.90;;;;;;5064381;28;20463;-71
2022/05/24 03:10:35;;;;;;;15.00;8.27;;;15.90;99.90;;;;;;5050581;28;21310;-71
2022/05/24 03:15:48;;;;;;;15.17;7.93;;;15.90;99.90;;;;;;5063048;28;20563;-71
2022/05/24 03:18:17;;;;;;;16.60;7.93;;;15.90;99.90;;;;;;5063917;28;20449;-71
2022/05/24 03:20:46;;;;;;;14.87;8.50;;;15.80;99.90;;;;;;5062193;28;20862;-71
2022/05/24 03:23:13;;;;;;;15.30;8.93;;;15.80;99.90;;;;;;5038753;28;21205;-71
2022/05/24 03:25:40;;;;;;;13.80;9.00;;;15.80;99.90;;;;;;5048490;28;20459;-71
2022/05/24 03:28:08;;;;;;;14.20;8.63;;;15.90;99.90;;;;;;5051487;28;20493;-71
2022/05/24 03:30:39;;;;;;;11.60;8.67;;;15.90;99.90;;;;;;5052844;28;20485;-71
2022/05/24 03:33:06;;;;;;;11.77;5.20;;;15.80;99.90;;;;;;5054743;28;20465;-71
2022/05/24 03:35:32;;;;;;;7.80;5.73;;;15.70;99.90;;;;;;5054979;28;20458;-71
2022/05/24 03:38:00;;;;;;;13.00;8.13;;;15.60;99.90;;;;;;5061785;28;20457;-71
2022/05/24 03:40:27;;;;;;;11.27;6.77;;;15.50;99.90;;;;;;5057707;28;20569;-71
2022/05/24 03:42:54;;;;;;;9.37;6.00;;;15.60;99.90;;;;;;5058907;28;20470;-70
2022/05/24 03:45:23;;;;;;;8.33;5.43;;;15.60;99.90;;;;;;5055586;28;20466;-71
2022/05/24 03:47:50;;;;;;;10.13;7.37;;;15.60;99.90;;;;;;5050345;28;21149;-71
2022/05/24 03:50:22;;;;;;;10.90;7.07;;;15.60;99.90;;;;;;5055693;28;20438;-72
2022/05/24 03:52:49;;;;;;;9.40;6.80;;;15.60;99.90;;;;;;5043986;22;20502;-72
2022/05/24 03:55:17;;;;;;;13.20;7.00;;;15.70;99.90;;;;;;5031441;28;20581;-72
2022/05/24 03:58:02;;;;;;;10.77;6.20;;;15.80;99.90;;;;;;5039264;28;20970;-72
2022/05/24 04:00:31;;;;;;;9.50;6.50;;;15.70;99.90;;;;;;5036559;28;20470;-72
2022/05/24 04:02:59;;;;;;;8.53;5.07;;;15.70;99.90;;;;;;5031343;28;20458;-72
2022/05/24 04:05:26;;;;;;;6.67;5.30;;;15.50;99.90;;;;;;5025114;28;21005;-72
2022/05/24 04:07:53;;;;;;;14.03;5.77;;;15.40;99.90;;;;;;5033628;28;20466;-72
2022/05/24 04:10:21;;;;;;;8.27;5.53;;;15.30;99.90;;;;;;5031096;28;20531;-71
2022/05/24 04:12:49;;;;;;;8.70;3.70;;;15.20;99.90;;;;;;5026452;28;20976;-72
2022/05/24 04:15:16;;;;;;;6.83;4.70;;;15.20;99.90;;;;;;5029371;28;20468;-72
2022/05/24 04:17:42;;;;;;;3.37;2.77;;;15.20;99.90;;;;;;5037680;28;20513;-72
2022/05/24 04:20:10;;;;;;;12.30;2.70;;;15.30;99.90;;;;;;5039436;28;20472;-72
2022/05/24 04:22:37;;;;;;;15.60;3.87;;;15.30;99.90;;;;;;5036302;28;20533;-72
2022/05/24 04:25:05;;;;;;;5.20;3.33;;;15.10;99.90;;;;;;5038617;28;20459;-73
2022/05/24 04:27:33;;;;;;;3.80;2.80;;;15.10;99.90;;;;;;5041465;28;20479;-72
2022/05/24 04:30:00;;;;;;;11.63;3.40;;;15.10;99.90;;;;;;5036193;28;21012;-72
2022/05/24 04:32:26;;;;;;;4.63;3.50;;;15.00;99.90;;;;;;5040761;28;20494;-72
2022/05/24 04:34:53;;;;;;;3.83;2.97;;;15.10;99.90;;;;;;5043501;28;20538;-73
2022/05/24 04:37:20;;;;;;;6.40;3.50;;;15.10;99.90;;;;;;5042433;28;20462;-72
2022/05/24 04:39:46;;;;;;;6.23;3.27;;;15.20;99.90;;;;;;5041428;28;20474;-73
2022/05/24 04:42:18;;;;;;;6.20;2.90;;;15.10;99.90;;;;;;5039788;28;20463;-73
2022/05/24 04:44:47;;;;;;;5.83;3.73;;;15.10;99.90;;;;;;5040673;28;20574;-72
2022/05/24 04:47:14;;;;;;;5.83;3.47;;;15.10;99.90;;;;;;5037471;28;20480;-72
2022/05/24 04:49:44;;;;;;;5.80;4.87;;;15.20;99.90;;;;;;5042156;28;20482;-73
2022/05/24 04:52:12;;;;;;;3.47;3.07;;;15.30;99.90;;;;;;5043163;28;20490;-73
2022/05/24 04:54:39;;;;;;;4.77;2.60;;;15.50;99.90;;;;;;5043558;28;20432;-72
2022/05/24 04:57:08;;;;;;;7.67;3.20;;;15.50;99.90;;;;;;5037273;28;20475;-73
2022/05/24 04:59:35;;;;;;;2.87;2.37;;;15.50;99.90;;;;;;5039735;28;20455;-73
2022/05/24 05:02:04;;;;;;;8.57;3.60;;;15.60;99.90;;;;;;5040667;28;20942;-73
2022/05/24 05:04:31;;;;;;;7.20;3.33;;;15.50;99.90;;;;;;5039195;28;20804;-74
2022/05/24 05:06:57;;;;;;;5.03;2.53;;;15.40;99.90;;;;;;5040174;28;20951;-72
2022/05/24 05:09:24;;;;;;;4.30;2.70;;;15.40;99.90;;;;;;5038160;28;20464;-73
2022/05/24 05:11:51;;;;;;;5.73;2.30;;;15.30;99.90;;;;;;5040004;28;21042;-73
2022/05/24 05:14:17;;;;;;;5.40;3.03;;;15.30;99.90;;;;;;5039122;28;20457;-73
2022/05/24 05:16:44;;;;;;;5.00;2.63;;;15.30;99.90;;;;;;5038275;28;20528;-72
2022/05/24 05:19:13;;;;;;;4.53;3.20;;;15.20;99.90;;;;;;5040168;28;20470;-73
2022/05/24 05:21:41;;;;;;;4.33;3.30;;;15.30;99.90;;;;;;5041100;28;20566;-74
2022/05/24 05:24:08;;;;;;;8.73;3.20;;;15.40;99.90;;;;;;5035521;28;20476;-72
2022/05/24 05:26:36;;;;;;;5.03;2.57;;;15.50;99.90;;;;;;5041061;28;20976;-73
2022/05/24 05:29:03;;;;;;;3.47;2.80;;;15.50;99.90;;;;;;5038216;28;20497;-72
2022/05/24 05:31:29;;;;;;;3.53;2.30;;;15.50;99.90;;;;;;5038187;28;20767;-73
2022/05/24 05:33:57;;;;;;;3.73;2.43;;;15.40;99.90;;;;;;5041017;28;20532;-73
2022/05/24 05:36:27;;;;;;;3.20;2.40;;;15.30;99.90;;;;;;5037979;28;20315;-73
2022/05/24 05:38:54;;;;;;;2.50;1.97;;;15.20;99.90;;;;;;5033164;28;20492;-72
2022/05/24 05:41:23;;;;;;;4.30;2.67;;;15.00;99.90;;;;;;5037405;28;20612;-72
2022/05/24 05:43:50;;;;;;;4.40;2.93;;;14.90;99.90;;;;;;5041604;28;20973;-72
2022/05/24 05:46:18;;;;;;;4.10;3.37;;;14.90;99.90;;;;;;5039897;28;20486;-72
2022/05/24 05:48:46;;;;;;;5.17;3.63;;;15.00;99.90;;;;;;5038999;28;20594;-73
2022/05/24 05:51:15;;;;;;;4.63;3.03;;;14.90;99.90;;;;;;5036444;28;20580;-72
2022/05/24 05:53:45;;;;;;;2.93;2.20;;;14.90;99.90;;;;;;5039565;28;20548;-73
2022/05/24 05:56:16;;;;;;;2.57;1.37;;;14.80;99.90;;;;;;5041394;28;20489;-72
2022/05/24 05:58:42;;;;;;;2.63;2.30;;;14.70;99.90;;;;;;5037042;28;20456;-72
2022/05/24 06:01:14;;;;;;;3.80;2.70;;;14.70;99.90;;;;;;5037097;28;20583;-72
2022/05/24 06:03:41;;;;;;;5.40;3.13;;;14.70;99.90;;;;;;5037728;28;21030;-72
2022/05/24 06:06:09;;;;;;;3.27;2.30;;;14.70;99.90;;;;;;5036687;28;20457;-72
2022/05/24 06:08:36;;;;;;;3.30;2.23;;;14.70;99.90;;;;;;5036481;28;20498;-72
2022/05/24 06:11:04;;;;;;;7.93;2.00;;;14.50;99.90;;;;;;5038746;28;20482;-72
2022/05/24 06:13:31;;;;;;;4.80;3.07;;;14.50;99.90;;;;;;5039388;28;20472;-72
2022/05/24 06:15:59;;;;;;;2.10;1.80;;;14.50;99.90;;;;;;5038756;28;20459;-72
2022/05/24 06:18:25;;;;;;;3.17;2.33;;;14.40;99.90;;;;;;5037132;28;20935;-72
2022/05/24 06:20:52;;;;;;;2.43;2.23;;;14.40;99.90;;;;;;5040345;28;20488;-72
2022/05/24 06:23:19;;;;;;;4.93;3.47;;;14.40;99.90;;;;;;5040023;28;21126;-72
2022/05/24 06:25:45;;;;;;;4.27;2.43;;;14.30;99.90;;;;;;5038735;28;20457;-73
2022/05/24 06:28:15;;;;;;;6.77;2.93;;;14.40;99.90;;;;;;5038985;28;20495;-72
2022/05/24 06:30:43;;;;;;;4.40;2.53;;;14.40;99.90;;;;;;5037124;28;20458;-73
2022/05/24 06:33:10;;;;;;;3.53;1.90;;;14.50;99.90;;;;;;5037191;28;20490;-73
2022/05/24 06:35:38;;;;;;;5.63;2.20;;;14.40;99.90;;;;;;5039530;28;20509;-73
2022/05/24 06:38:05;;;;;;;4.23;2.53;;;14.40;99.90;;;;;;5038430;28;20440;-73
2022/05/24 06:40:32;;;;;;;5.73;3.23;;;14.40;99.90;;;;;;5035210;28;20802;-73
2022/05/24 06:42:58;;;;;;;4.70;2.50;;;14.60;99.90;;;;;;5037288;28;20435;-73
2022/05/24 06:45:26;;;;;;;5.30;2.87;;;14.50;99.90;;;;;;5039876;28;20439;-73
2022/05/24 06:47:53;;;;;;;2.70;2.23;;;14.50;99.90;;;;;;5038717;28;20465;-73
2022/05/24 06:50:20;;;;;;;4.83;2.20;;;14.30;99.90;;;;;;5039114;28;20439;-72
2022/05/24 06:52:47;;;;;;;6.90;2.13;;;14.20;99.90;;;;;;5030229;28;20505;-73
2022/05/24 06:55:14;;;;;;;1.50;1.30;;;14.10;99.90;;;;;;5042078;28;20512;-73
2022/05/24 06:57:41;;;;;;;8.57;3.27;;;14.20;99.90;;;;;;5039858;28;20573;-73
2022/05/24 07:03:01;;;;;;;3.47;2.37;;;14.10;99.90;;;;;;5036893;28;20593;-73
2022/05/24 07:05:29;;;;;;;3.30;2.47;;;14.00;99.90;;;;;;5038739;28;20462;-74
2022/05/24 07:07:56;;;;;;;2.13;1.80;;;14.10;99.90;;;;;;5041114;28;20508;-73
2022/05/24 07:10:23;;;;;;;3.60;1.50;;;14.20;99.90;;;;;;5038590;28;20443;-73
2022/05/24 07:12:59;;;;;;;3.63;1.97;;;14.00;99.90;;;;;;5039874;28;20478;-72
2022/05/24 07:15:26;;;;;;;1.53;1.00;;;14.00;99.90;;;;;;5036889;28;20460;-72
2022/05/24 07:17:52;;;;;;;4.10;1.47;;;13.90;99.90;;;;;;5037160;28;20522;-72
2022/05/24 07:20:21;;;;;;;2.47;1.47;;;13.80;99.90;;;;;;5037929;28;20462;-72
2022/05/24 07:22:49;;;;;;;3.37;2.10;;;13.80;99.90;;;;;;5041002;28;20481;-73
2022/05/24 07:25:16;;;;;;;3.70;2.00;;;14.00;99.90;;;;;;5039506;28;20855;-72
2022/05/24 07:27:42;;;;;;;1.77;1.47;;;14.20;99.90;;;;;;5038203;28;21038;-73
2022/05/24 07:30:10;;;;;;;1.70;1.47;;;14.50;99.90;;;;;;5033833;28;20546;-72
2022/05/24 07:32:37;;;;;;;3.00;1.60;;;14.60;99.90;;;;;;5037279;28;20484;-72
2022/05/24 07:35:04;;;;;;;2.67;2.43;;;14.60;99.90;;;;;;5035820;28;20898;-72
2022/05/24 07:37:32;;;;;;;1.57;1.20;;;14.60;99.90;;;;;;5040935;28;20947;-73
2022/05/24 07:48:09;;;;;;;8.90;1.87;;;14.50;99.90;;;;;;5037976;28;20820;-72
2022/05/24 07:50:37;;;;;;;5.23;1.87;;;14.50;99.90;;;;;;5038004;28;20563;-73
2022/05/24 07:53:05;;;;;;;2.97;1.37;;;14.40;99.90;;;;;;5039677;28;20520;-73
2022/05/24 07:55:32;;;;;;;6.57;1.40;;;14.60;99.90;;;;;;5036515;28;20433;-72
2022/05/24 07:57:59;;;;;;;4.27;1.27;;;14.80;99.90;;;;;;5037388;28;20563;-72
2022/05/24 08:00:26;;;;;;;3.57;1.50;;;14.90;99.90;;;;;;5036773;28;20470;-72
2022/05/24 08:02:54;;;;;;;1.90;1.50;;;15.00;99.90;;;;;;5039206;28;20461;-74
2022/05/24 08:05:22;;;;;;;4.20;2.10;;;14.90;99.90;;;;;;5035054;28;20816;-72
2022/05/24 08:07:49;;;;;;;2.67;1.30;;;14.80;99.90;;;;;;5040804;28;20470;-74
2022/05/24 08:10:18;;;;;;;3.63;1.67;;;14.80;99.90;;;;;;5039988;28;20549;-72
2022/05/24 08:12:45;;;;;;;2.07;1.87;;;14.80;99.90;;;;;;5034026;28;21058;-73
2022/05/24 08:15:13;;;;;;;3.27;2.00;;;15.10;99.90;;;;;;5036772;28;20529;-73
2022/05/24 08:17:40;;;;;;;4.27;1.67;;;16.30;99.90;;;;;;5036149;28;20469;-73
2022/05/24 08:20:09;;;;;;;1.40;1.20;;;17.70;99.90;;;;;;5033614;28;20453;-73
2022/05/24 08:22:36;;;;;;;4.53;1.77;;;18.20;99.90;;;;;;5041527;28;20479;-73
2022/05/24 08:25:04;;;;;;;2.13;1.63;;;18.30;99.90;;;;;;5036378;28;20493;-72
2022/05/24 08:27:32;;;;;;;3.17;1.47;;;18.30;99.90;;;;;;5033997;28;20472;-72
2022/05/24 08:29:59;;;;;;;5.10;4.07;;;17.50;99.90;;;;;;5033716;28;21084;-72
2022/05/24 08:32:26;;;;;;;1.93;1.70;;;17.50;99.90;;;;;;5038015;28;20645;-73
2022/05/24 08:34:53;;;;;;;3.10;1.40;;;17.00;99.90;;;;;;5037802;28;20641;-72
2022/05/24 08:37:20;;;;;;;5.47;2.57;;;16.60;99.90;;;;;;5033199;28;20467;-73
2022/05/24 08:39:46;;;;;;;2.40;2.10;;;16.60;99.90;;;;;;5033758;28;20457;-72
2022/05/24 08:42:33;;;;;;;2.10;1.80;;;16.60;99.90;;;;;;5037685;28;21007;-72
2022/05/24 08:48:26;;;;;;;1.77;1.27;;;17.70;99.90;;;;;;4976243;28;20467;-72
2022/05/24 08:50:59;;;;;;;2.43;1.83;;;18.50;99.90;;;;;;5031568;28;20580;-72
2022/05/24 08:53:32;;;;;;;1.90;1.67;;;18.00;99.90;;;;;;5039366;28;20905;-71
2022/05/24 08:56:02;;;;;;;2.43;2.00;;;17.70;99.90;;;;;;5044162;28;21186;-72
2022/05/24 08:58:34;;;;;;;3.63;1.93;;;17.50;99.90;;;;;;5039281;28;20457;-72
2022/05/24 09:01:02;;;;;;;3.07;2.00;;;17.20;99.90;;;;;;5031187;28;20490;-72
2022/05/24 09:03:29;;;;;;;2.20;2.00;;;17.70;99.90;;;;;;5040101;28;20544;-72
2022/05/24 09:06:02;;;;;;;4.60;1.83;;;17.90;99.90;;;;;;5039421;28;20460;-73
2022/05/24 09:08:31;;;;;;;2.70;1.70;;;17.60;99.90;;;;;;5044228;28;20591;-73
2022/05/24 09:11:08;;;;;;;4.13;1.60;;;17.90;99.90;;;;;;5043810;28;20505;-73
2022/05/24 09:14:04;;;;;;;2.00;1.60;;;18.50;99.90;;;;;;5044189;28;20564;-72
2022/05/24 09:16:42;;;;;;;2.80;1.50;;;19.10;99.90;;;;;;5046515;28;20643;-72
2022/05/24 09:19:17;;;;;;;3.10;1.47;;;19.00;99.90;;;;;;5041095;28;20500;-73
2022/05/24 09:21:47;;;;;;;1.70;1.60;;;19.10;99.90;;;;;;5040971;28;20477;-72
2022/05/24 09:24:22;;;;;;;3.53;1.57;;;18.90;99.90;;;;;;5036664;28;20470;-72
2022/05/24 09:27:04;;;;;;;3.60;1.90;;;18.40;99.90;;;;;;5040334;28;20475;-73
2022/05/24 09:29:31;;;;;;;4.40;1.73;;;17.90;99.90;;;;;;5041733;28;20559;-73
2022/05/24 09:32:04;;;;;;;2.20;1.50;;;17.60;99.90;;;;;;5041967;28;20509;-73
2022/05/24 09:34:33;;;;;;;2.67;1.60;;;16.90;99.90;;;;;;5041162;28;20467;-72
2022/05/24 09:37:02;;;;;;;1.67;1.20;;;16.50;99.90;;;;;;5038044;28;20465;-72
2022/05/24 09:39:31;;;;;;;1.53;1.43;;;16.10;99.90;;;;;;5036211;28;20601;-72
2022/05/24 09:41:59;;;;;;;1.40;1.27;;;16.20;99.90;;;;;;5041272;28;20485;-73
2022/05/24 09:44:27;;;;;;;2.90;2.70;;;16.70;99.90;;;;;;5037395;28;20479;-72
2022/05/24 09:46:54;;;;;;;3.30;1.60;;;17.30;99.90;;;;;;5040131;28;20458;-73
2022/05/24 09:49:26;;;;;;;2.60;1.70;;;17.50;99.90;;;;;;5041508;28;20570;-72
2022/05/24 09:51:56;;;;;;;1.80;1.60;;;17.10;99.90;;;;;;5048434;22;20863;-77
2022/05/24 09:54:27;;;;;;;3.70;2.80;;;17.00;99.90;;;;;;5037734;28;20461;-77
2022/05/24 09:57:04;;;;;;;2.40;1.53;;;16.70;99.90;;;;;;5037413;28;20463;-77
2022/05/24 09:59:31;;;;;;;4.33;1.80;;;16.70;99.90;;;;;;5041806;28;20462;-77
2022/05/24 10:01:58;;;;;;;2.63;1.43;;;17.00;99.90;;;;;;5030419;28;20509;-77
2022/05/24 10:04:28;;;;;;;4.00;2.07;;;17.80;99.90;;;;;;5041324;28;20515;-77
2022/05/24 10:06:58;;;;;;;3.40;1.77;;;18.20;99.90;;;;;;5043458;28;20465;-75
2022/05/24 10:09:49;;;;;;;1.77;1.33;;;18.00;99.90;;;;;;5035717;28;20486;-77
2022/05/24 10:12:26;;;;;;;3.27;1.30;;;17.60;99.90;;;;;;5028622;28;20486;-77
2022/05/24 10:15:03;;;;;;;4.53;1.40;;;17.30;99.90;;;;;;5034146;28;20456;-77
2022/05/24 10:17:39;;;;;;;1.53;0.90;;;17.50;99.90;;;;;;5036610;28;20468;-77
2022/05/24 10:20:13;;;;;;;4.60;1.30;;;17.60;99.90;;;;;;5034767;28;20461;-76
2022/05/24 10:22:48;;;;;;;1.93;1.20;;;17.60;99.90;;;;;;5038685;28;20591;-76
2022/05/24 10:25:19;;;;;;;1.83;1.37;;;17.40;99.90;;;;;;5036818;28;20514;-76
2022/05/24 10:28:00;;;;;;;2.07;1.33;;;17.50;99.90;;;;;;5030085;28;20524;-76
2022/05/24 10:30:31;;;;;;;1.40;1.10;;;18.80;99.90;;;;;;5034477;28;20474;-76
2022/05/24 10:38:57;;;;;;;2.07;1.03;;;22.10;99.90;;;;;;5028215;28;20477;-77
2022/05/24 10:41:27;;;;;;;1.37;1.20;;;22.20;99.90;;;;;;5037272;28;21088;-76
2022/05/24 10:44:05;;;;;;;1.87;1.20;;;21.30;99.90;;;;;;5038227;28;21047;-77
2022/05/24 10:46:38;;;;;;;3.03;1.20;;;21.00;99.90;;;;;;5043613;28;21007;-77
2022/05/24 10:49:15;;;;;;;3.30;1.30;;;20.80;99.90;;;;;;5040099;28;20485;-76
2022/05/24 10:51:49;;;;;;;1.80;1.20;;;21.70;99.90;;;;;;5034294;28;20545;-76
2022/05/24 10:54:29;;;;;;;2.93;1.33;;;22.70;99.90;;;;;;5035506;28;20466;-77
2022/05/24 10:57:00;;;;;;;2.33;1.20;;;22.70;99.90;;;;;;5033426;28;20527;-77
2022/05/24 10:59:41;;;;;;;2.60;1.67;;;22.60;99.90;;;;;;5041180;28;21224;-76
2022/05/24 11:02:16;;;;;;;1.60;1.17;;;22.00;99.90;;;;;;5043822;28;20860;-77
2022/05/24 11:04:49;;;;;;;2.37;1.60;;;21.80;99.90;;;;;;5036432;28;20486;-77
2022/05/24 11:07:18;;;;;;;1.63;1.20;;;22.10;99.90;;;;;;5043447;28;20568;-78
2022/05/24 11:09:55;;;;;;;2.97;1.23;;;22.40;99.90;;;;;;5039602;28;20494;-77
2022/05/24 11:12:25;;;;;;;1.60;1.37;;;22.50;99.90;;;;;;5036884;28;20482;-77
2022/05/24 11:14:57;;;;;;;3.07;1.17;;;22.30;99.90;;;;;;5032421;28;20463;-77
2022/05/24 11:17:24;;;;;;;2.67;1.27;;;21.70;99.90;;;;;;5038221;28;20527;-77
2022/05/24 11:19:54;;;;;;;5.13;1.60;;;22.20;99.90;;;;;;5041353;28;20867;-77
2022/05/24 11:22:28;;;;;;;1.50;1.10;;;22.80;99.90;;;;;;5034356;28;20490;-78
2022/05/24 11:25:03;;;;;;;1.40;1.20;;;23.80;99.90;;;;;;5028699;28;20462;-78
2022/05/24 11:27:32;;;;;;;5.00;1.37;;;23.00;99.90;;;;;;5033032;28;20490;-77
2022/05/24 11:30:07;;;;;;;1.80;1.30;;;22.70;99.90;;;;;;5035412;28;20509;-78
2022/05/24 11:32:37;;;;;;;1.90;1.10;;;21.80;99.90;;;;;;5038945;28;20489;-77
2022/05/24 11:35:08;;;;;;;1.97;1.40;;;21.50;99.90;;;;;;5037942;28;20508;-77
2022/05/24 11:37:38;;;;;;;1.30;1.10;;;21.30;99.90;;;;;;5040347;28;20512;-77
2022/05/24 11:40:36;;;;;;;1.80;1.10;;;21.80;99.90;;;;;;5035620;28;20467;-77
2022/05/24 11:43:05;;;;;;;2.00;1.43;;;21.40;99.90;;;;;;5027346;28;20814;-77
2022/05/24 11:46:01;;;;;;;2.13;1.37;;;21.10;99.90;;;;;;5027738;28;20511;-76
2022/05/24 11:48:43;;;;;;;2.10;1.30;;;21.00;99.90;;;;;;5037677;28;20463;-76
2022/05/24 11:51:41;;;;;;;4.90;1.30;;;20.50;99.90;;;;;;5038192;28;20489;-76
2022/05/24 11:54:49;;;;;;;2.60;1.17;;;20.10;99.90;;;;;;5029293;28;20522;-76
2022/05/24 11:57:26;;;;;;;1.30;0.93;;;19.70;99.90;;;;;;5038386;28;20834;-77
2022/05/24 11:59:53;;;;;;;1.80;0.93;;;20.90;99.90;;;;;;5041257;28;20467;-77
2022/05/24 12:09:10;;;;;;;1.67;1.23;;;20.90;99.90;;;;;;5038988;28;20527;-78
2022/05/24 12:11:37;;;;;;;2.33;1.80;;;20.40;99.90;;;;;;5041281;28;20550;-77
2022/05/24 12:14:34;;;;;;;3.30;1.23;;;20.10;99.90;;;;;;5041706;28;20475;-76
2022/05/24 12:17:14;;;;;;;2.27;1.20;;;20.20;99.90;;;;;;5032374;28;20885;-77
2022/05/24 12:19:52;;;;;;;1.47;1.00;;;21.20;99.90;;;;;;5040192;28;20516;-76
2022/05/24 12:22:21;;;;;;;1.80;1.20;;;21.30;99.90;;;;;;5038099;28;20505;-77
2022/05/24 12:24:51;;;;;;;1.70;1.20;;;21.00;99.90;;;;;;5034305;28;20892;-77
2022/05/24 12:27:31;;;;;;;6.13;1.27;;;20.60;99.90;;;;;;5035401;28;20500;-77
2022/05/24 12:30:13;;;;;;;1.47;1.00;;;20.20;99.90;;;;;;5035078;28;20761;-77
2022/05/24 12:32:41;;;;;;;1.67;1.57;;;20.10;99.90;;;;;;5039522;28;20523;-77
2022/05/24 12:35:12;;;;;;;2.13;1.20;;;19.70;99.90;;;;;;5038883;28;20555;-77
2022/05/24 12:37:45;;;;;;;2.90;1.30;;;19.70;99.90;;;;;;5038807;28;20462;-76
2022/05/24 12:40:18;;;;;;;3.70;1.50;;;20.70;99.90;;;;;;5040744;28;20493;-78
2022/05/24 12:42:47;;;;;;;1.47;1.13;;;20.90;99.90;;;;;;5040806;28;20477;-76
2022/05/24 12:45:22;;;;;;;1.77;1.07;;;20.20;99.90;;;;;;5041256;28;20801;-76
2022/05/24 12:47:52;;;;;;;2.10;1.30;;;19.70;99.90;;;;;;5047203;28;20467;-76
2022/05/24 12:50:36;;;;;;;16.80;1.60;;;19.40;99.90;;;;;;5041236;28;20497;-77
2022/05/24 12:53:07;;;;;;;1.37;1.00;;;19.50;99.90;;;;;;5039540;28;20488;-77
2022/05/24 12:58:34;;;;;;;1.70;1.27;;;19.00;99.90;;;;;;5036417;28;20453;-76
2022/05/24 13:01:14;;;;;;;4.17;1.43;;;18.90;99.90;;;;;;5036526;28;20979;-76
2022/05/24 13:03:50;;;;;;;4.70;1.20;;;18.70;99.90;;;;;;5043242;28;20586;-77
2022/05/24 13:06:22;;;;;;;2.17;1.70;;;18.40;99.90;;;;;;5036678;28;20888;-76
2022/05/24 13:09:06;;;;;;;3.17;1.50;;;18.20;99.90;;;;;;5035806;28;20497;-77
2022/05/24 13:11:35;;;;;;;4.20;1.50;;;18.20;99.90;;;;;;5044436;28;20490;-76
2022/05/24 13:14:01;;;;;;;1.30;1.10;;;18.50;99.90;;;;;;5042187;28;20548;-76
2022/05/24 13:16:30;;;;;;;1.50;1.10;;;18.90;99.90;;;;;;5036994;28;20869;-76
2022/05/24 13:18:57;;;;;;;2.90;1.50;;;19.50;99.90;;;;;;5040609;28;20951;-77
2022/05/24 13:21:25;;;;;;;1.90;1.40;;;19.90;99.90;;;;;;5040082;28;20472;-77
2022/05/24 13:24:09;;;;;;;3.80;1.30;;;19.80;99.90;;;;;;5043156;28;20968;-76
2022/05/24 13:26:36;;;;;;;2.00;1.37;;;20.20;99.90;;;;;;5042644;28;20560;-77
2022/05/24 13:29:24;;;;;;;1.83;1.60;;;20.30;99.90;;;;;;5039576;28;20559;-77
2022/05/24 13:34:38;;;;;;;1.63;1.30;;;20.30;99.90;;;;;;5040898;28;20453;-76
2022/05/24 13:37:08;;;;;;;1.40;1.00;;;20.90;99.90;;;;;;5039649;28;20473;-76
2022/05/24 13:39:53;;;;;;;2.83;1.20;;;21.20;99.90;;;;;;5037404;28;20836;-77
2022/05/24 13:42:25;;;;;;;1.30;0.87;;;22.90;99.90;;;;;;5047276;28;22126;-77
2022/05/24 13:45:10;;;;;;;1.50;1.03;;;24.20;99.90;;;;;;5045427;28;20459;-77
2022/05/24 13:47:39;;;;;;;1.50;1.30;;;23.50;99.40;;;;;;5039503;28;21057;-76